Time;durP1;ratioP1;P1;durP2;ratioP2;P2;SDS_P1;SDS_P2;PMS_P1;PMS_P2;Temp;Humidity;BMP_temperature;BMP_pressure;BME280_temperature;BME280_humidity;BME280_pressure;Samples;Min_cycle;Max_cycle;Signal;HPM_P1;HPM_P2
2023/01/19 00:01:09;;;;;;;5.60;3.28;;;3.30;99.90;;;;;;6154384;23;20017;-81
2023/01/19 00:03:35;;;;;;;6.93;3.72;;;3.20;99.90;;;;;;6154854;23;20072;-80
2023/01/19 00:06:07;;;;;;;7.53;3.10;;;3.20;99.90;;;;;;6152609;23;20014;-80
2023/01/19 00:08:34;;;;;;;5.90;2.72;;;3.20;99.90;;;;;;6129804;23;20010;-80
2023/01/19 00:11:00;;;;;;;3.28;2.20;;;3.20;99.90;;;;;;6153445;23;20013;-80
2023/01/19 00:13:26;;;;;;;4.75;1.63;;;3.30;99.90;;;;;;6154859;23;20010;-81
2023/01/19 00:15:52;;;;;;;3.70;1.05;;;3.20;99.90;;;;;;6129133;23;20013;-81
2023/01/19 00:18:18;;;;;;;3.22;1.00;;;3.30;99.90;;;;;;6154223;23;20072;-80
2023/01/19 00:20:49;;;;;;;3.95;1.33;;;3.30;99.90;;;;;;6154303;23;20100;-80
2023/01/19 00:23:15;;;;;;;3.05;0.73;;;3.30;99.90;;;;;;6129950;23;20017;-84
2023/01/19 00:25:42;;;;;;;7.03;1.25;;;3.30;99.90;;;;;;6152734;23;20068;-82
2023/01/19 00:28:09;;;;;;;3.33;1.05;;;3.30;99.90;;;;;;6154614;23;20017;-82
2023/01/19 00:30:35;;;;;;;1.60;0.60;;;3.30;99.90;;;;;;6152948;23;20072;-82
2023/01/19 00:33:01;;;;;;;1.92;0.47;;;3.30;99.90;;;;;;6153056;23;20017;-82
2023/01/19 00:35:26;;;;;;;1.33;0.57;;;3.20;99.90;;;;;;6152982;23;20041;-80
2023/01/19 00:37:52;;;;;;;2.75;0.63;;;3.20;99.90;;;;;;6153681;23;20013;-81
2023/01/19 00:40:17;;;;;;;0.52;0.52;;;3.10;99.90;;;;;;6153020;23;20010;-81
2023/01/19 00:42:43;;;;;;;1.42;0.80;;;3.10;99.90;;;;;;6154047;23;20093;-83
2023/01/19 00:45:10;;;;;;;1.00;0.90;;;2.90;99.90;;;;;;6153146;23;20018;-81
2023/01/19 00:47:38;;;;;;;1.63;1.00;;;2.90;99.90;;;;;;6129216;23;20312;-81
2023/01/19 00:50:04;;;;;;;1.40;0.90;;;2.90;99.90;;;;;;6154096;23;20005;-80
2023/01/19 00:52:30;;;;;;;1.90;1.15;;;2.80;99.90;;;;;;6154754;23;20020;-81
2023/01/19 00:54:56;;;;;;;2.63;1.52;;;2.70;99.90;;;;;;6130253;23;20010;-82
2023/01/19 00:57:22;;;;;;;2.33;1.50;;;2.70;99.90;;;;;;6131047;23;20014;-80
2023/01/19 00:59:48;;;;;;;1.50;1.30;;;2.70;99.90;;;;;;6156557;23;20048;-81
2023/01/19 01:02:13;;;;;;;3.28;1.48;;;2.60;99.90;;;;;;6131453;23;20595;-81
2023/01/19 01:04:39;;;;;;;1.83;1.40;;;2.60;99.90;;;;;;6132481;23;20045;-81
2023/01/19 01:07:05;;;;;;;2.47;1.40;;;2.60;99.90;;;;;;6154588;23;20017;-84
2023/01/19 01:09:30;;;;;;;3.58;1.50;;;2.50;99.90;;;;;;6131391;23;20013;-82
2023/01/19 01:11:56;;;;;;;1.40;1.20;;;2.50;99.90;;;;;;6131228;23;20020;-83
2023/01/19 01:14:23;;;;;;;1.42;1.13;;;2.50;99.90;;;;;;6156077;23;20402;-80
2023/01/19 01:16:49;;;;;;;1.33;1.23;;;2.50;99.90;;;;;;6154155;23;20040;-86
2023/01/19 01:19:15;;;;;;;2.85;2.00;;;2.40;99.90;;;;;;6156019;23;20032;-82
2023/01/19 01:21:41;;;;;;;2.95;1.90;;;2.40;99.90;;;;;;6155483;23;20076;-82
2023/01/19 01:24:07;;;;;;;2.15;1.95;;;2.50;99.90;;;;;;6131878;23;20731;-80
2023/01/19 01:26:33;;;;;;;3.58;2.13;;;2.40;99.90;;;;;;6155816;23;20024;-81
2023/01/19 01:28:58;;;;;;;2.92;2.05;;;2.50;99.90;;;;;;6155378;23;20088;-85
2023/01/19 01:31:24;;;;;;;3.45;2.20;;;2.50;99.90;;;;;;6155006;23;20045;-81
2023/01/19 01:33:50;;;;;;;2.70;2.22;;;2.60;99.90;;;;;;6154153;23;20045;-82
2023/01/19 01:36:17;;;;;;;3.38;2.30;;;2.50;99.90;;;;;;6155233;23;20069;-81
2023/01/19 01:38:43;;;;;;;3.78;3.20;;;2.40;99.90;;;;;;6155361;23;20350;-82
2023/01/19 01:41:09;;;;;;;4.95;3.20;;;2.50;99.90;;;;;;6155363;23;20028;-80
2023/01/19 01:43:55;;;;;;;3.97;3.47;;;2.50;99.90;;;;;;6130803;23;20028;-80
2023/01/19 01:46:21;;;;;;;3.92;3.60;;;2.50;99.90;;;;;;6155277;23;20076;-80
2023/01/19 01:48:53;;;;;;;4.50;3.50;;;2.50;99.90;;;;;;6131025;23;20013;-81
2023/01/19 01:52:00;;;;;;;4.95;4.43;;;2.50;99.90;;;;;;6130668;23;20005;-80
2023/01/19 01:54:29;;;;;;;3.75;3.35;;;2.50;99.90;;;;;;6124895;23;20009;-82
2023/01/19 01:57:01;;;;;;;4.47;3.80;;;2.60;99.90;;;;;;6153957;23;20021;-80
2023/01/19 01:59:37;;;;;;;5.53;4.20;;;2.60;99.90;;;;;;6154732;23;20013;-82
2023/01/19 02:04:59;;;;;;;6.15;5.18;;;2.60;99.90;;;;;;6154553;23;20037;-80
2023/01/19 02:13:19;;;;;;;13.85;5.78;;;2.80;99.90;;;;;;6154695;23;20180;-80
2023/01/19 02:15:51;;;;;;;7.40;5.53;;;2.70;99.90;;;;;;6153766;23;20085;-80
2023/01/19 02:18:18;;;;;;;9.45;6.47;;;2.60;99.90;;;;;;6131514;23;20010;-83
2023/01/19 02:20:55;;;;;;;11.82;6.47;;;2.60;99.90;;;;;;6155391;23;20100;-80
2023/01/19 02:23:47;;;;;;;7.38;6.50;;;2.70;99.90;;;;;;6131714;23;20570;-83
2023/01/19 02:26:18;;;;;;;9.10;6.40;;;2.70;99.90;;;;;;6086013;23;20100;-84
2023/01/19 02:28:47;;;;;;;9.95;7.68;;;2.80;99.90;;;;;;6129889;23;20064;-81
2023/01/19 02:31:14;;;;;;;12.00;7.53;;;2.70;99.90;;;;;;6155364;23;20070;-81
2023/01/19 02:33:40;;;;;;;9.07;7.70;;;2.70;99.90;;;;;;6154696;23;20063;-81
2023/01/19 02:36:09;;;;;;;7.85;7.03;;;2.70;99.90;;;;;;6153870;23;20068;-81
2023/01/19 02:38:35;;;;;;;8.95;6.90;;;2.80;99.90;;;;;;6130466;23;20037;-80
2023/01/19 02:41:03;;;;;;;10.13;8.00;;;2.80;99.90;;;;;;6154902;23;20013;-80
2023/01/19 02:43:29;;;;;;;10.70;7.68;;;2.90;99.90;;;;;;6155788;23;20104;-80
2023/01/19 02:45:55;;;;;;;9.85;8.00;;;2.80;99.90;;;;;;6129850;23;20014;-80
2023/01/19 02:48:20;;;;;;;10.40;7.47;;;2.80;99.90;;;;;;6155468;23;20060;-81
2023/01/19 02:50:53;;;;;;;8.10;7.07;;;2.80;99.90;;;;;;6129989;23;20041;-80
2023/01/19 02:53:44;;;;;;;8.13;7.28;;;2.80;99.90;;;;;;6155105;23;20010;-80
2023/01/19 02:56:39;;;;;;;7.25;6.57;;;2.80;99.90;;;;;;6154349;23;20148;-83
2023/01/19 02:59:24;;;;;;;8.57;7.22;;;2.90;99.90;;;;;;6130390;23;20140;-81
2023/01/19 03:02:02;;;;;;;10.07;7.57;;;2.80;99.90;;;;;;6155378;23;20025;-82
2023/01/19 03:04:55;;;;;;;10.25;8.13;;;2.80;99.90;;;;;;6130544;23;20013;-82
2023/01/19 03:07:46;;;;;;;7.05;6.20;;;2.90;99.90;;;;;;6153074;23;20021;-80
2023/01/19 03:10:28;;;;;;;5.95;5.35;;;2.80;99.90;;;;;;6153740;23;20017;-80
2023/01/19 03:13:13;;;;;;;5.07;4.55;;;2.80;99.90;;;;;;6130255;23;20319;-80
2023/01/19 03:15:48;;;;;;;4.93;3.90;;;2.80;99.90;;;;;;6153645;23;20339;-80
2023/01/19 03:18:18;;;;;;;4.35;3.50;;;2.80;99.90;;;;;;6154687;23;20009;-80
2023/01/19 03:20:45;;;;;;;3.88;3.40;;;2.80;99.90;;;;;;6130286;23;20366;-81
2023/01/19 03:23:14;;;;;;;3.35;3.00;;;2.80;99.90;;;;;;6155250;23;20072;-83
2023/01/19 03:25:44;;;;;;;4.05;3.40;;;2.80;99.90;;;;;;6154393;23;20056;-81
2023/01/19 03:28:11;;;;;;;4.07;3.53;;;2.80;99.90;;;;;;6132341;23;20021;-81
2023/01/19 03:30:44;;;;;;;3.90;3.17;;;2.70;99.90;;;;;;6155200;23;20017;-81
2023/01/19 03:33:16;;;;;;;3.28;2.95;;;2.70;99.90;;;;;;6156177;23;20046;-81
2023/01/19 03:35:47;;;;;;;3.83;3.42;;;2.70;99.90;;;;;;6129758;23;20069;-83
2023/01/19 03:38:23;;;;;;;4.00;3.70;;;2.70;99.90;;;;;;6129561;23;20048;-86
2023/01/19 03:40:50;;;;;;;;;;;2.70;99.90;;;;;;6156639;23;20020;-80
2023/01/19 03:43:17;;;;;;;4.53;3.35;;;2.70;99.90;;;;;;6156808;23;19920;-81
2023/01/19 03:45:43;;;;;;;4.40;3.80;;;2.80;99.90;;;;;;6156230;23;20009;-80
2023/01/19 03:48:11;;;;;;;4.85;3.53;;;2.70;99.90;;;;;;6157225;23;20017;-80
2023/01/19 03:50:36;;;;;;;3.38;3.03;;;2.60;99.90;;;;;;6157446;23;20418;-80
2023/01/19 03:53:14;;;;;;;3.03;2.72;;;2.70;99.90;;;;;;6156430;23;20010;-82
2023/01/19 03:55:43;;;;;;;5.45;2.47;;;2.60;99.90;;;;;;6156462;23;20604;-80
2023/01/19 03:58:09;;;;;;;3.58;2.70;;;2.70;99.90;;;;;;6132231;23;20014;-81
2023/01/19 04:00:35;;;;;;;3.40;3.10;;;2.60;99.90;;;;;;6131802;23;20013;-81
2023/01/19 04:03:01;;;;;;;2.35;2.00;;;2.60;99.90;;;;;;6156219;23;20088;-81
2023/01/19 04:05:28;;;;;;;3.15;2.10;;;2.60;99.90;;;;;;6131418;23;20014;-80
2023/01/19 04:07:54;;;;;;;3.08;1.75;;;2.60;99.90;;;;;;6155334;23;20056;-84
2023/01/19 04:10:20;;;;;;;3.28;1.30;;;2.70;99.90;;;;;;6156025;23;20014;-80
2023/01/19 04:12:46;;;;;;;2.05;1.42;;;2.70;99.90;;;;;;6133089;23;20051;-80
2023/01/19 04:15:12;;;;;;;2.03;1.33;;;2.70;99.90;;;;;;6131341;23;20013;-82
2023/01/19 04:17:38;;;;;;;3.35;1.52;;;2.70;99.90;;;;;;6130099;23;20022;-80
2023/01/19 04:20:04;;;;;;;2.40;1.45;;;2.80;99.90;;;;;;6154791;23;20095;-81
2023/01/19 04:22:30;;;;;;;2.47;1.45;;;2.70;99.90;;;;;;6130423;23;20013;-85
2023/01/19 04:24:56;;;;;;;4.43;1.23;;;2.80;99.90;;;;;;6153810;23;20059;-81
2023/01/19 04:27:21;;;;;;;3.17;1.10;;;2.80;99.90;;;;;;6154718;23;20806;-80
2023/01/19 04:29:47;;;;;;;2.42;1.20;;;2.70;99.90;;;;;;6130563;23;20458;-82
2023/01/19 04:32:13;;;;;;;3.47;0.98;;;2.80;99.90;;;;;;6156481;23;20045;-80
2023/01/19 04:34:38;;;;;;;5.40;1.13;;;2.80;99.90;;;;;;6131828;23;20013;-80
2023/01/19 04:37:04;;;;;;;2.88;0.68;;;2.80;99.90;;;;;;6131416;23;20348;-80
2023/01/19 04:39:30;;;;;;;5.13;0.65;;;2.90;99.90;;;;;;6132287;23;20021;-81
2023/01/19 04:41:56;;;;;;;4.47;0.60;;;2.90;99.90;;;;;;6157080;23;20385;-80
2023/01/19 04:44:22;;;;;;;6.93;0.60;;;2.90;99.90;;;;;;6157619;23;20048;-82
2023/01/19 04:46:48;;;;;;;4.97;0.45;;;3.20;99.90;;;;;;6156006;23;20024;-80
2023/01/19 04:49:14;;;;;;;7.55;1.40;;;3.00;99.90;;;;;;6157208;23;20013;-82
2023/01/19 04:51:40;;;;;;;12.13;0.70;;;3.10;99.90;;;;;;6157003;23;20010;-80
2023/01/19 04:54:07;;;;;;;2.97;0.30;;;3.20;99.90;;;;;;6132201;23;20909;-80
2023/01/19 04:56:33;;;;;;;8.30;0.60;;;3.20;99.90;;;;;;6156190;23;20017;-80
2023/01/19 04:58:59;;;;;;;8.80;0.55;;;3.20;99.90;;;;;;6153547;23;20072;-81
2023/01/19 05:01:25;;;;;;;5.78;0.90;;;3.20;99.90;;;;;;6131446;23;20021;-80
2023/01/19 05:03:50;;;;;;;6.00;0.73;;;3.30;99.90;;;;;;6157380;23;20017;-86
2023/01/19 05:06:16;;;;;;;8.27;0.60;;;3.30;99.90;;;;;;6155824;23;20040;-80
2023/01/19 05:08:41;;;;;;;7.90;0.75;;;3.40;99.90;;;;;;6153400;23;20035;-80
2023/01/19 05:11:07;;;;;;;4.90;0.65;;;3.40;99.90;;;;;;6154833;23;20021;-80
2023/01/19 05:13:33;;;;;;;6.93;0.45;;;3.40;99.90;;;;;;6130029;23;20092;-82
2023/01/19 05:16:01;;;;;;;8.85;0.45;;;3.40;99.90;;;;;;6152934;23;20022;-82
2023/01/19 05:18:27;;;;;;;6.25;0.55;;;3.40;99.90;;;;;;6154419;23;20023;-81
2023/01/19 05:20:52;;;;;;;6.38;0.60;;;3.50;99.90;;;;;;6130288;23;20013;-79
2023/01/19 05:23:18;;;;;;;10.48;1.10;;;3.50;99.90;;;;;;6155227;23;20014;-82
2023/01/19 05:25:43;;;;;;;5.95;0.88;;;3.60;99.90;;;;;;6127640;23;20013;-82
2023/01/19 05:28:10;;;;;;;11.15;0.75;;;3.60;99.90;;;;;;6149435;23;20021;-84
2023/01/19 05:30:35;;;;;;;13.70;1.77;;;3.60;99.90;;;;;;6151078;23;20009;-80
2023/01/19 05:33:01;;;;;;;7.28;0.82;;;3.60;99.90;;;;;;6154396;23;20071;-79
2023/01/19 05:35:27;;;;;;;12.40;0.50;;;3.60;99.90;;;;;;6151638;23;20644;-80
2023/01/19 05:37:53;;;;;;;13.55;1.75;;;3.60;99.90;;;;;;6153845;23;20024;-80
2023/01/19 05:40:18;;;;;;;7.93;0.60;;;3.60;99.90;;;;;;6126943;23;20040;-78
2023/01/19 05:42:44;;;;;;;9.27;0.63;;;3.60;99.90;;;;;;6153970;23;20481;-80
2023/01/19 05:45:11;;;;;;;9.77;1.10;;;3.60;99.90;;;;;;6152656;23;20021;-78
2023/01/19 05:47:37;;;;;;;8.13;0.63;;;3.70;99.90;;;;;;6154741;23;20018;-80
2023/01/19 05:50:04;;;;;;;8.25;0.70;;;3.60;99.90;;;;;;6153567;23;20006;-82
2023/01/19 05:52:29;;;;;;;4.43;0.30;;;3.70;99.90;;;;;;6106765;23;20568;-81
2023/01/19 05:54:54;;;;;;;3.85;0.98;;;3.70;99.90;;;;;;6156245;23;20013;-82
2023/01/19 05:57:21;;;;;;;5.22;0.52;;;3.70;99.90;;;;;;6154536;23;20017;-84
2023/01/19 05:59:47;;;;;;;5.88;1.05;;;3.70;99.90;;;;;;6132740;23;20021;-82
2023/01/19 06:02:12;;;;;;;7.75;0.43;;;3.60;99.90;;;;;;6133008;23;20014;-83
2023/01/19 06:04:38;;;;;;;6.68;0.40;;;3.60;99.90;;;;;;6157404;23;20049;-84
2023/01/19 06:07:05;;;;;;;3.55;0.28;;;3.60;99.90;;;;;;6154224;23;20018;-85
2023/01/19 06:09:31;;;;;;;6.10;0.68;;;3.50;99.90;;;;;;6130908;23;20092;-83
2023/01/19 06:11:58;;;;;;;6.50;0.52;;;3.50;99.90;;;;;;6130821;23;20100;-82
2023/01/19 06:14:25;;;;;;;8.60;0.63;;;3.50;99.90;;;;;;6147164;23;20005;-79
2023/01/19 06:16:51;;;;;;;9.25;0.90;;;3.40;99.90;;;;;;6153918;23;20602;-80
2023/01/19 06:19:16;;;;;;;3.65;0.40;;;3.50;99.90;;;;;;6130945;23;20020;-79
2023/01/19 06:21:48;;;;;;;4.97;1.00;;;3.40;99.90;;;;;;6158014;23;20049;-77
2023/01/19 06:24:14;;;;;;;8.88;0.50;;;3.40;99.90;;;;;;6154917;23;20035;-79
2023/01/19 06:26:41;;;;;;;12.43;2.25;;;3.40;99.90;;;;;;6132190;23;20020;-83
2023/01/19 06:29:07;;;;;;;5.30;0.70;;;3.30;99.90;;;;;;6158079;23;20009;-81
2023/01/19 06:31:33;;;;;;;4.72;0.80;;;3.30;99.90;;;;;;6134237;23;20009;-80
2023/01/19 06:33:58;;;;;;;5.03;0.40;;;3.30;99.90;;;;;;6156208;23;20469;-79
2023/01/19 06:36:24;;;;;;;8.75;0.60;;;3.30;99.90;;;;;;6155228;23;20013;-80
2023/01/19 06:38:49;;;;;;;8.45;0.40;;;3.20;99.90;;;;;;6129707;23;20021;-82
2023/01/19 06:41:15;;;;;;;8.20;0.60;;;3.20;99.90;;;;;;6155332;23;20538;-79
2023/01/19 06:43:40;;;;;;;9.45;0.50;;;3.10;99.90;;;;;;6155874;23;20017;-79
2023/01/19 06:46:06;;;;;;;10.25;0.70;;;3.20;99.90;;;;;;6155057;23;20017;-83
2023/01/19 06:48:32;;;;;;;8.60;0.70;;;3.20;99.90;;;;;;6133670;23;20014;-84
2023/01/19 06:50:57;;;;;;;6.18;1.00;;;3.20;99.90;;;;;;6131788;23;20010;-79
2023/01/19 06:53:23;;;;;;;6.43;0.98;;;3.20;99.90;;;;;;6133471;23;20014;-81
2023/01/19 06:55:48;;;;;;;7.10;0.65;;;3.20;99.90;;;;;;6156343;23;20013;-79
2023/01/19 06:58:14;;;;;;;11.57;1.02;;;3.10;99.90;;;;;;6158591;23;20013;-82
2023/01/19 07:00:40;;;;;;;16.10;1.77;;;3.20;99.90;;;;;;6128700;23;20009;-83
2023/01/19 07:03:18;;;;;;;9.75;1.52;;;3.20;99.90;;;;;;6154942;23;20017;-83
2023/01/19 07:05:44;;;;;;;10.88;0.90;;;3.30;99.90;;;;;;6130110;23;20009;-80
2023/01/19 07:08:09;;;;;;;13.45;1.42;;;3.40;99.90;;;;;;6130058;23;20056;-82
2023/01/19 07:10:36;;;;;;;12.77;1.70;;;3.50;99.90;;;;;;6131567;23;20098;-80
2023/01/19 07:13:01;;;;;;;11.43;1.20;;;3.50;99.90;;;;;;6132507;23;20016;-81
2023/01/19 07:15:27;;;;;;;8.23;1.23;;;3.50;99.90;;;;;;6131260;23;20439;-80
2023/01/19 07:17:57;;;;;;;11.45;1.95;;;3.50;99.90;;;;;;6131212;23;20017;-85
2023/01/19 07:20:23;;;;;;;10.75;1.52;;;3.50;99.90;;;;;;6131763;23;20013;-80
2023/01/19 07:22:55;;;;;;;14.32;1.80;;;3.50;99.90;;;;;;6156829;23;20064;-80
2023/01/19 07:25:22;;;;;;;13.40;1.90;;;3.50;99.90;;;;;;6155643;23;20162;-80
2023/01/19 07:27:48;;;;;;;14.85;1.27;;;3.40;99.90;;;;;;6134988;23;20024;-80
2023/01/19 07:30:19;;;;;;;12.60;1.25;;;3.50;99.90;;;;;;6133062;23;20096;-83
2023/01/19 07:33:41;;;;;;;;;;;;;;;;;;;;;
2023/01/19 07:35:56;;;;;;;13.15;1.88;;;3.40;99.90;;;;;;6145993;23;20017;-79
2023/01/19 07:38:21;;;;;;;9.57;1.55;;;3.70;99.90;;;;;;6154942;23;20353;-84
2023/01/19 07:40:47;;;;;;;10.13;1.20;;;3.40;99.90;;;;;;6129115;23;20354;-80
2023/01/19 07:43:13;;;;;;;9.25;0.90;;;3.40;99.90;;;;;;6153335;23;20010;-79
2023/01/19 07:45:39;;;;;;;11.18;1.70;;;3.40;99.90;;;;;;6073159;23;20478;-83
2023/01/19 07:48:05;;;;;;;13.32;1.27;;;3.40;99.90;;;;;;6126602;23;20009;-80
2023/01/19 07:50:31;;;;;;;11.30;1.45;;;3.40;99.90;;;;;;6128515;23;20009;-82
2023/01/19 07:52:56;;;;;;;19.08;2.03;;;3.50;99.90;;;;;;6152978;23;20386;-82
2023/01/19 07:55:23;;;;;;;14.85;1.70;;;3.50;99.90;;;;;;6151373;23;20012;-83
2023/01/19 07:57:51;;;;;;;14.40;1.80;;;3.50;99.90;;;;;;6151894;23;20542;-82
2023/01/19 08:00:20;;;;;;;11.70;1.70;;;3.50;99.90;;;;;;6126715;23;20025;-84
2023/01/19 08:02:48;;;;;;;13.30;1.65;;;3.50;99.90;;;;;;6128410;23;20013;-81
2023/01/19 08:05:16;;;;;;;17.73;2.65;;;3.50;99.90;;;;;;6151956;23;20017;-79
2023/01/19 08:07:41;;;;;;;9.85;1.52;;;3.50;99.90;;;;;;6151459;23;20014;-80
2023/01/19 08:10:08;;;;;;;16.67;2.50;;;3.50;99.90;;;;;;6127686;23;20020;-85
2023/01/19 08:12:33;;;;;;;12.38;1.38;;;3.40;99.90;;;;;;6153639;23;20470;-81
2023/01/19 08:14:59;;;;;;;9.07;1.65;;;3.40;99.90;;;;;;6124747;23;20018;-84
2023/01/19 08:17:25;;;;;;;11.63;1.00;;;3.40;99.90;;;;;;6153901;23;20021;-79
2023/01/19 08:19:50;;;;;;;13.30;1.50;;;3.40;99.90;;;;;;6152649;23;20087;-80
2023/01/19 08:22:16;;;;;;;11.60;2.60;;;3.30;99.90;;;;;;6152394;23;20018;-81
2023/01/19 08:25:05;;;;;;;13.10;2.08;;;3.30;99.90;;;;;;6126130;23;20025;-80
2023/01/19 08:27:35;;;;;;;14.23;2.00;;;3.40;99.90;;;;;;6151858;23;20127;-83
2023/01/19 08:30:01;;;;;;;15.15;1.77;;;4.00;99.90;;;;;;6128964;23;20447;-84
2023/01/19 08:32:26;;;;;;;13.82;1.70;;;3.30;99.90;;;;;;6154868;23;20010;-79
2023/01/19 08:34:52;;;;;;;15.85;1.70;;;3.30;99.90;;;;;;6153346;23;20018;-82
2023/01/19 08:37:18;;;;;;;9.52;1.02;;;3.30;99.90;;;;;;6154419;23;20559;-79
2023/01/19 08:39:43;;;;;;;17.50;2.42;;;3.30;99.90;;;;;;6129298;23;20021;-79
2023/01/19 08:42:09;;;;;;;12.98;2.15;;;3.30;99.90;;;;;;6129638;23;20530;-79
2023/01/19 08:44:34;;;;;;;12.25;1.70;;;3.40;99.90;;;;;;6154675;23;20024;-82
2023/01/19 08:47:00;;;;;;;16.55;2.80;;;3.40;99.90;;;;;;6130820;23;20064;-84
2023/01/19 08:49:26;;;;;;;23.23;2.70;;;3.40;99.90;;;;;;6129323;23;20061;-79
2023/01/19 08:51:51;;;;;;;21.40;3.00;;;3.50;99.90;;;;;;6129470;23;20017;-80
2023/01/19 08:54:19;;;;;;;18.70;2.83;;;3.40;99.90;;;;;;6154207;23;20080;-80
2023/01/19 08:56:44;;;;;;;20.10;2.45;;;3.50;99.90;;;;;;6127692;23;20021;-83
2023/01/19 08:59:10;;;;;;;9.75;2.08;;;3.40;99.90;;;;;;6128650;23;20018;-80
2023/01/19 09:01:36;;;;;;;20.35;2.97;;;3.50;99.90;;;;;;6129915;23;20021;-79
2023/01/19 09:04:02;;;;;;;11.38;2.40;;;3.40;99.90;;;;;;6154060;23;20018;-83
2023/01/19 09:06:27;;;;;;;17.58;1.80;;;3.50;99.90;;;;;;6152183;23;20036;-80
2023/01/19 09:08:53;;;;;;;14.55;2.65;;;3.50;99.90;;;;;;6153027;23;20041;-83
2023/01/19 09:11:19;;;;;;;14.15;1.50;;;3.50;99.90;;;;;;6153874;23;20017;-79
2023/01/19 09:13:45;;;;;;;23.08;2.45;;;3.60;99.90;;;;;;6154533;23;20044;-79
2023/01/19 09:16:12;;;;;;;16.42;1.90;;;3.50;99.90;;;;;;6155119;23;20068;-81
2023/01/19 09:18:38;;;;;;;13.35;1.75;;;3.60;99.90;;;;;;6129142;23;20022;-79
2023/01/19 09:21:04;;;;;;;12.30;1.80;;;3.50;99.90;;;;;;6154295;23;20017;-82
2023/01/19 09:23:30;;;;;;;15.02;1.60;;;3.60;99.90;;;;;;6154798;23;20014;-82
2023/01/19 09:26:04;;;;;;;18.83;2.13;;;3.50;99.90;;;;;;6154185;23;20017;-84
2023/01/19 09:28:30;;;;;;;15.63;1.65;;;3.60;99.90;;;;;;6154875;23;20009;-81
2023/01/19 09:30:55;;;;;;;15.98;1.75;;;3.50;99.90;;;;;;6127815;23;20100;-80
2023/01/19 09:33:23;;;;;;;12.00;1.52;;;3.50;99.90;;;;;;6154999;23;20103;-79
2023/01/19 09:35:50;;;;;;;13.65;2.05;;;3.50;99.90;;;;;;6152897;23;20092;-86
2023/01/19 09:38:17;;;;;;;14.02;1.38;;;3.50;99.90;;;;;;6127937;23;20018;-82
2023/01/19 09:40:51;;;;;;;12.38;1.83;;;3.60;99.90;;;;;;6129234;23;20009;-79
2023/01/19 09:43:38;;;;;;;20.38;1.73;;;3.60;99.90;;;;;;6133731;23;20059;-81
2023/01/19 09:46:29;;;;;;;11.57;1.30;;;3.70;99.90;;;;;;6129647;23;20064;-76
2023/01/19 09:49:03;;;;;;;14.63;2.03;;;3.70;99.90;;;;;;6127503;23;20069;-86
2023/01/19 09:51:34;;;;;;;14.60;1.23;;;3.80;99.90;;;;;;6152950;23;20013;-86
2023/01/19 09:54:41;;;;;;;11.68;1.70;;;3.90;99.90;;;;;;6153579;23;20043;-83
2023/01/19 09:57:51;;;;;;;14.52;1.95;;;3.90;99.90;;;;;;6155734;23;20017;-81
2023/01/19 10:01:22;;;;;;;15.63;1.98;;;4.00;99.90;;;;;;6115007;23;20028;-84
2023/01/19 10:07:32;;;;;;;15.32;2.88;;;4.20;99.90;;;;;;6128947;23;20068;-82
2023/01/19 10:10:42;;;;;;;9.75;1.48;;;4.50;99.90;;;;;;6076924;23;20450;-85
2023/01/19 10:13:16;;;;;;;9.73;1.45;;;4.30;99.90;;;;;;5979793;23;20155;-87
2023/01/19 10:15:53;;;;;;;8.75;1.70;;;4.30;99.90;;;;;;6015986;23;20014;-82
2023/01/19 10:18:33;;;;;;;14.13;2.22;;;4.40;99.90;;;;;;6098542;23;20065;-83
2023/01/19 10:21:05;;;;;;;13.05;1.73;;;4.50;99.90;;;;;;6110495;23;20022;-84
2023/01/19 10:23:39;;;;;;;15.52;2.55;;;4.50;99.90;;;;;;6133732;23;20020;-86
2023/01/19 10:26:58;;;;;;;8.38;1.02;;;4.60;99.90;;;;;;6130779;23;20100;-80
2023/01/19 10:29:36;;;;;;;11.27;1.20;;;4.70;99.90;;;;;;6069300;23;20028;-80
2023/01/19 10:32:34;;;;;;;13.05;1.25;;;5.10;99.90;;;;;;6131449;23;20022;-83
2023/01/19 10:35:47;;;;;;;15.20;1.88;;;5.10;99.90;;;;;;6156353;23;20314;-85
2023/01/19 10:39:45;;;;;;;11.77;2.38;;;5.20;99.90;;;;;;6119558;23;20049;-83
2023/01/19 10:42:16;;;;;;;8.82;1.05;;;5.40;99.90;;;;;;6130512;23;20045;-80
2023/01/19 10:44:44;;;;;;;15.02;1.67;;;6.00;99.90;;;;;;6154151;23;20017;-81
2023/01/19 10:47:30;;;;;;;11.50;1.52;;;5.70;99.90;;;;;;6151842;23;20469;-81
2023/01/19 10:50:28;;;;;;;11.80;1.48;;;6.70;99.90;;;;;;6152373;23;20024;-80
2023/01/19 10:52:57;;;;;;;10.18;1.40;;;6.10;99.90;;;;;;6151516;23;20027;-86
2023/01/19 10:55:38;;;;;;;9.77;1.13;;;6.20;99.90;;;;;;6100746;23;20013;-80
2023/01/19 10:59:02;;;;;;;10.52;1.45;;;6.30;99.90;;;;;;6131858;23;20014;-82
2023/01/19 11:08:00;;;;;;;6.63;1.35;;;6.70;99.90;;;;;;6130273;23;20057;-82
2023/01/19 11:10:40;;;;;;;8.20;0.98;;;6.80;99.90;;;;;;6105274;23;20018;-82
2023/01/19 11:13:11;;;;;;;11.65;1.63;;;7.40;99.90;;;;;;6093225;23;20018;-85
2023/01/19 11:15:52;;;;;;;4.95;0.68;;;7.00;99.90;;;;;;6134142;23;20018;-83
2023/01/19 11:18:38;;;;;;;5.57;1.10;;;7.10;99.90;;;;;;6160400;23;20116;-87
2023/01/19 11:21:11;;;;;;;9.43;0.95;;;7.30;99.90;;;;;;6158252;23;20084;-85
2023/01/19 11:23:49;;;;;;;6.03;1.13;;;7.40;99.90;;;;;;6134910;23;20014;-83
2023/01/19 11:26:39;;;;;;;10.23;1.45;;;7.70;99.90;;;;;;6131637;23;20017;-86
2023/01/19 11:29:17;;;;;;;5.63;1.23;;;7.90;99.90;;;;;;6134505;23;20022;-84
2023/01/19 11:31:43;;;;;;;6.72;1.42;;;8.10;99.90;;;;;;6155948;23;20033;-89
2023/01/19 11:34:27;;;;;;;6.88;1.17;;;8.40;99.90;;;;;;6154583;23;20088;-85
2023/01/19 11:37:01;;;;;;;11.80;1.33;;;8.50;99.90;;;;;;6126953;23;20581;-84
2023/01/19 11:39:29;;;;;;;7.78;1.23;;;9.00;99.90;;;;;;6105648;23;20014;-87
2023/01/19 11:41:58;;;;;;;5.13;1.00;;;9.00;99.90;;;;;;6157905;23;20017;-87
2023/01/19 11:44:39;;;;;;;5.63;0.75;;;9.10;99.90;;;;;;6158607;23;20025;-82
2023/01/19 11:47:11;;;;;;;5.65;0.93;;;9.30;99.90;;;;;;6134163;23;20014;-83
2023/01/19 11:50:01;;;;;;;9.82;1.25;;;9.50;99.90;;;;;;6130114;23;20060;-89
2023/01/19 11:52:41;;;;;;;5.35;1.00;;;9.70;99.90;;;;;;6133864;23;20013;-89
2023/01/19 11:55:52;;;;;;;6.45;1.05;;;9.80;99.90;;;;;;6130811;23;20136;-86
2023/01/19 11:58:19;;;;;;;8.23;1.25;;;9.70;99.90;;;;;;6095667;23;20032;-85
2023/01/19 12:00:53;;;;;;;6.30;0.50;;;9.40;99.90;;;;;;6131223;23;20014;-82
2023/01/19 12:03:41;;;;;;;8.48;1.20;;;9.20;99.90;;;;;;6158031;23;20092;-86
2023/01/19 12:06:17;;;;;;;5.68;0.70;;;9.30;99.90;;;;;;6128809;23;20014;-82
2023/01/19 12:08:49;;;;;;;6.63;1.40;;;9.40;99.90;;;;;;6134061;23;20016;-83
2023/01/19 12:11:20;;;;;;;7.20;1.15;;;9.60;99.90;;;;;;6133770;23;20651;-82
2023/01/19 12:13:46;;;;;;;8.35;1.00;;;9.60;99.90;;;;;;6133186;23;20010;-84
2023/01/19 12:16:18;;;;;;;9.25;0.93;;;9.60;99.90;;;;;;6131073;23;20017;-82
2023/01/19 12:18:58;;;;;;;4.35;0.68;;;9.60;99.90;;;;;;6131637;23;20044;-83
2023/01/19 12:21:23;;;;;;;6.82;1.45;;;9.60;99.90;;;;;;6132959;23;20112;-90
2023/01/19 12:24:24;;;;;;;4.00;1.15;;;9.50;99.90;;;;;;6133285;23;20323;-83
2023/01/19 12:26:55;;;;;;;4.80;0.80;;;9.50;99.90;;;;;;6105266;23;20026;-82
2023/01/19 12:29:23;;;;;;;5.13;1.00;;;9.60;99.90;;;;;;6156440;23;20013;-82
2023/01/19 12:32:15;;;;;;;7.82;1.60;;;9.50;99.90;;;;;;6132554;23;20025;-82
2023/01/19 12:34:42;;;;;;;4.95;0.85;;;9.30;99.90;;;;;;6151669;23;20017;-88
2023/01/19 12:37:31;;;;;;;4.82;0.80;;;9.20;99.90;;;;;;6132163;23;20063;-82
2023/01/19 12:40:01;;;;;;;7.55;1.05;;;9.10;99.90;;;;;;6156129;23;20036;-85
2023/01/19 12:42:28;;;;;;;6.45;1.00;;;9.10;99.90;;;;;;6132037;23;20037;-82
2023/01/19 12:45:06;;;;;;;9.30;1.42;;;9.00;99.90;;;;;;6130899;23;20037;-85
2023/01/19 12:47:36;;;;;;;10.02;1.10;;;8.80;99.90;;;;;;6132736;23;20041;-85
2023/01/19 12:50:15;;;;;;;9.77;0.95;;;8.60;99.90;;;;;;6132770;23;20017;-88
2023/01/19 12:52:50;;;;;;;5.97;0.63;;;8.60;99.90;;;;;;6129943;23;20009;-82
2023/01/19 12:55:21;;;;;;;3.42;0.75;;;8.60;99.90;;;;;;6134573;23;20024;-82
2023/01/19 12:58:15;;;;;;;9.57;0.98;;;8.60;99.90;;;;;;6133568;23;20021;-84
2023/01/19 13:00:44;;;;;;;6.00;0.70;;;8.60;99.90;;;;;;6121066;23;20021;-82
2023/01/19 13:03:15;;;;;;;7.82;0.90;;;8.50;99.90;;;;;;6134982;23;20092;-82
2023/01/19 13:05:41;;;;;;;3.60;0.65;;;8.50;99.90;;;;;;6133851;23;20022;-83
2023/01/19 13:08:10;;;;;;;11.85;1.05;;;8.50;99.90;;;;;;6159658;23;20021;-85
2023/01/19 13:11:01;;;;;;;8.57;0.95;;;8.50;99.90;;;;;;6134753;23;20046;-88
2023/01/19 13:13:29;;;;;;;5.22;0.90;;;8.50;99.90;;;;;;6134694;23;20014;-87
2023/01/19 13:16:15;;;;;;;4.78;0.80;;;8.40;99.90;;;;;;6133414;23;20025;-83
2023/01/19 13:18:42;;;;;;;9.35;0.70;;;8.10;99.90;;;;;;6132592;23;20014;-84
2023/01/19 13:21:08;;;;;;;3.22;0.40;;;7.80;99.90;;;;;;6133218;23;20018;-89
2023/01/19 13:23:48;;;;;;;6.97;0.80;;;7.60;99.90;;;;;;6132032;23;20029;-85
2023/01/19 13:26:16;;;;;;;5.88;0.45;;;7.40;99.90;;;;;;6131396;23;20073;-83
2023/01/19 13:28:44;;;;;;;4.07;0.52;;;7.30;99.90;;;;;;6133279;23;20014;-84
2023/01/19 13:31:11;;;;;;;4.22;0.52;;;7.30;99.90;;;;;;6133717;23;20375;-85
2023/01/19 13:33:58;;;;;;;9.52;1.02;;;7.30;99.90;;;;;;6134425;23;20019;-84
2023/01/19 13:36:32;;;;;;;6.13;0.77;;;7.20;99.90;;;;;;6158556;23;20020;-85